Time;durP1;ratioP1;P1;durP2;ratioP2;P2;SDS_P1;SDS_P2;PMS_P1;PMS_P2;Temp;Humidity;BMP_temperature;BMP_pressure;BME280_temperature;BME280_humidity;BME280_pressure;Samples;Min_cycle;Max_cycle;Signal;HPM_P1;HPM_P2
2023/09/23 00:01:45;;;;;;;2.47;1.80;;;20.70;46.10;;;;;;4973103;28;20818;-50
2023/09/23 00:04:11;;;;;;;2.53;2.07;;;20.80;46.10;;;;;;4973243;28;20423;-50
2023/09/23 00:06:37;;;;;;;2.90;1.40;;;20.80;46.00;;;;;;4973115;28;20704;-50
2023/09/23 00:09:04;;;;;;;2.47;1.80;;;20.80;46.10;;;;;;4973016;28;20298;-49
2023/09/23 00:11:30;;;;;;;1.67;1.07;;;20.70;46.30;;;;;;4972975;28;20199;-52
2023/09/23 00:13:56;;;;;;;1.73;1.40;;;20.70;46.30;;;;;;4972927;28;20774;-51
2023/09/23 00:16:22;;;;;;;3.40;1.50;;;20.70;46.10;;;;;;4973078;28;20498;-49
2023/09/23 00:18:48;;;;;;;2.13;1.43;;;20.70;46.10;;;;;;4972975;28;20767;-50
2023/09/23 00:21:13;;;;;;;2.00;1.43;;;20.70;46.10;;;;;;4973065;28;20455;-50
2023/09/23 00:23:40;;;;;;;3.80;1.90;;;20.70;45.80;;;;;;4975714;28;20203;-51
2023/09/23 00:26:10;;;;;;;2.43;1.60;;;20.70;45.40;;;;;;4976775;28;20196;-50
2023/09/23 00:28:36;;;;;;;2.47;1.27;;;20.70;45.50;;;;;;4976532;28;20463;-51
2023/09/23 00:31:10;;;;;;;2.00;1.30;;;20.60;45.60;;;;;;4976730;28;20422;-52
2023/09/23 00:33:37;;;;;;;2.33;1.43;;;20.60;45.80;;;;;;4976491;28;20925;-50
2023/09/23 00:36:05;;;;;;;3.20;2.90;;;20.60;45.50;;;;;;4976810;28;20774;-51
2023/09/23 00:38:32;;;;;;;1.40;1.20;;;20.60;45.50;;;;;;4976532;28;20435;-50
2023/09/23 00:40:58;;;;;;;1.70;1.10;;;20.50;45.60;;;;;;4976554;28;20419;-50
2023/09/23 00:43:24;;;;;;;2.20;1.80;;;20.40;45.60;;;;;;4976315;28;20770;-52
2023/09/23 00:45:54;;;;;;;2.53;1.40;;;20.40;45.30;;;;;;4976566;28;20176;-49
2023/09/23 00:48:21;;;;;;;1.60;1.47;;;20.40;45.50;;;;;;4976409;28;20211;-51
2023/09/23 00:50:48;;;;;;;1.50;0.80;;;20.40;45.80;;;;;;4976372;28;20434;-52
2023/09/23 00:53:15;;;;;;;2.97;1.67;;;20.40;45.90;;;;;;4976183;28;20431;-52
2023/09/23 00:55:51;;;;;;;2.70;1.90;;;20.40;45.80;;;;;;4976529;28;20411;-52
2023/09/23 00:58:20;;;;;;;3.10;1.83;;;20.40;45.90;;;;;;4976119;28;20933;-48
2023/09/23 01:00:46;;;;;;;1.60;1.30;;;20.30;45.80;;;;;;4976357;28;20442;-50
2023/09/23 01:03:13;;;;;;;2.17;1.70;;;20.30;45.90;;;;;;4975932;28;20184;-50
2023/09/23 01:05:43;;;;;;;3.30;1.57;;;20.30;45.90;;;;;;4976138;28;20427;-50
2023/09/23 01:08:20;;;;;;;2.57;1.57;;;20.30;45.60;;;;;;4975860;28;20541;-51
2023/09/23 01:10:47;;;;;;;1.90;1.33;;;20.20;45.50;;;;;;4976186;28;20421;-49
2023/09/23 01:13:14;;;;;;;1.93;1.10;;;20.10;45.50;;;;;;4975912;28;20407;-50
2023/09/23 01:15:41;;;;;;;1.63;1.07;;;20.10;45.60;;;;;;4976032;28;20403;-48
2023/09/23 01:18:08;;;;;;;1.98;1.25;;;20.10;45.80;;;;;;4975797;28;20463;-51
2023/09/23 01:20:37;;;;;;;1.30;0.80;;;20.00;45.90;;;;;;4975745;28;20563;-50
2023/09/23 01:23:04;;;;;;;2.67;1.80;;;20.00;45.60;;;;;;4975714;28;20423;-50
2023/09/23 01:25:30;;;;;;;2.00;1.50;;;20.00;45.80;;;;;;4975635;28;20412;-50
2023/09/23 01:27:56;;;;;;;2.40;1.80;;;19.90;45.80;;;;;;4975629;28;20443;-49
2023/09/23 01:30:24;;;;;;;1.70;1.53;;;19.90;45.90;;;;;;4975734;28;20408;-50
2023/09/23 01:32:51;;;;;;;1.40;0.97;;;19.80;45.90;;;;;;4975106;28;20247;-52
2023/09/23 01:35:20;;;;;;;5.00;2.28;;;19.80;46.70;;;;;;4975811;28;20480;-50
2023/09/23 01:37:47;;;;;;;1.90;1.23;;;19.80;45.90;;;;;;4975719;28;20625;-53
2023/09/23 01:40:19;;;;;;;2.00;1.20;;;19.70;45.90;;;;;;4975599;28;20407;-49
2023/09/23 01:42:48;;;;;;;1.20;0.70;;;19.70;46.00;;;;;;4975387;28;20853;-51
2023/09/23 01:45:14;;;;;;;2.17;1.70;;;19.60;46.00;;;;;;4975463;28;20420;-54
2023/09/23 01:47:44;;;;;;;1.83;1.57;;;19.60;46.10;;;;;;4975121;28;20614;-52
2023/09/23 01:50:10;;;;;;;1.52;1.13;;;19.60;46.30;;;;;;4975325;28;20200;-52
2023/09/23 01:52:43;;;;;;;2.28;1.33;;;19.40;46.20;;;;;;4975248;28;20184;-53
2023/09/23 01:55:10;;;;;;;3.75;1.92;;;19.40;46.30;;;;;;4975392;28;20176;-55
2023/09/23 01:57:36;;;;;;;2.83;1.38;;;19.30;46.30;;;;;;4975230;28;20633;-49
2023/09/23 02:00:12;;;;;;;2.03;1.37;;;19.30;46.50;;;;;;4975087;28;20199;-51
2023/09/23 02:02:38;;;;;;;2.30;2.10;;;19.20;46.60;;;;;;4974911;28;20414;-50
2023/09/23 02:05:05;;;;;;;2.37;1.90;;;19.20;46.50;;;;;;4975036;28;20183;-49
2023/09/23 02:07:30;;;;;;;1.50;1.00;;;19.20;46.40;;;;;;4974878;28;20268;-51
2023/09/23 02:09:56;;;;;;;1.70;1.10;;;19.20;46.40;;;;;;4975067;28;20263;-48
2023/09/23 02:12:24;;;;;;;3.73;2.07;;;19.10;46.50;;;;;;4974749;28;20244;-48
2023/09/23 02:14:51;;;;;;;1.90;1.27;;;19.00;46.50;;;;;;4974797;28;20681;-52
2023/09/23 02:17:19;;;;;;;2.03;1.20;;;19.00;46.30;;;;;;4974735;28;20199;-49
2023/09/23 02:19:46;;;;;;;2.20;1.50;;;18.90;46.30;;;;;;4974952;28;20200;-50
2023/09/23 02:22:12;;;;;;;3.85;1.65;;;18.90;46.50;;;;;;4974720;28;20184;-51
2023/09/23 02:24:40;;;;;;;2.10;1.50;;;18.80;46.60;;;;;;4974756;28;20180;-49
2023/09/23 02:27:06;;;;;;;1.90;1.33;;;18.70;46.90;;;;;;4974492;28;20208;-49
2023/09/23 02:29:32;;;;;;;1.45;1.25;;;18.60;46.90;;;;;;4974558;28;20203;-50
2023/09/23 02:32:00;;;;;;;1.80;0.98;;;18.60;47.00;;;;;;4974351;28;20229;-49
2023/09/23 02:34:27;;;;;;;2.85;1.58;;;18.60;47.40;;;;;;4974584;28;20175;-51
2023/09/23 02:36:53;;;;;;;3.60;1.60;;;18.60;47.20;;;;;;4974502;28;20220;-49
2023/09/23 02:39:21;;;;;;;3.13;1.10;;;18.60;47.10;;;;;;4974505;28;20639;-48
2023/09/23 02:41:48;;;;;;;3.90;1.35;;;18.60;47.10;;;;;;4974154;28;20834;-54
2023/09/23 02:44:19;;;;;;;1.10;0.70;;;18.70;47.20;;;;;;4974401;28;20545;-50
2023/09/23 02:46:47;;;;;;;1.27;1.10;;;18.70;47.10;;;;;;4973921;28;20288;-54
2023/09/23 02:49:14;;;;;;;1.42;0.82;;;18.70;47.10;;;;;;4974194;28;20235;-54
2023/09/23 02:51:42;;;;;;;1.83;0.98;;;18.80;46.50;;;;;;4974097;28;20176;-52
2023/09/23 02:54:09;;;;;;;1.58;1.08;;;18.70;46.70;;;;;;4974199;28;20551;-55
2023/09/23 02:56:35;;;;;;;2.28;1.00;;;18.70;46.70;;;;;;4974071;28;20183;-50
2023/09/23 02:59:11;;;;;;;2.25;1.45;;;18.70;46.80;;;;;;4974227;28;20180;-54
2023/09/23 03:01:51;;;;;;;2.08;1.02;;;18.60;46.70;;;;;;4973976;28;20180;-50
2023/09/23 03:04:25;;;;;;;2.20;1.13;;;18.60;46.50;;;;;;4973972;28;20692;-54
2023/09/23 03:06:55;;;;;;;1.30;1.15;;;18.50;46.80;;;;;;4974080;28;20282;-51
2023/09/23 03:09:24;;;;;;;1.35;0.80;;;18.50;46.80;;;;;;4973903;28;20217;-52
2023/09/23 03:11:55;;;;;;;2.17;0.88;;;18.50;46.70;;;;;;4973769;28;20183;-54
2023/09/23 03:14:30;;;;;;;1.10;0.50;;;18.40;46.60;;;;;;4973889;28;20180;-54
2023/09/23 03:16:57;;;;;;;2.22;0.90;;;18.50;46.50;;;;;;4973740;28;20206;-52
2023/09/23 03:19:26;;;;;;;2.05;0.85;;;18.50;46.20;;;;;;4973574;28;20183;-53
2023/09/23 03:21:56;;;;;;;1.00;0.52;;;18.60;46.20;;;;;;4973703;28;20175;-52
2023/09/23 03:24:26;;;;;;;1.00;0.50;;;18.60;45.90;;;;;;4973863;28;20183;-53
2023/09/23 03:26:58;;;;;;;1.00;0.57;;;18.60;46.00;;;;;;4973429;28;20222;-55
2023/09/23 03:29:28;;;;;;;1.00;0.30;;;18.60;46.00;;;;;;4973536;28;20202;-55
2023/09/23 03:31:58;;;;;;;1.55;0.68;;;18.70;46.00;;;;;;4973268;28;20180;-53
2023/09/23 03:34:26;;;;;;;1.45;0.77;;;18.80;45.70;;;;;;4973701;28;20207;-55
2023/09/23 03:36:56;;;;;;;1.10;0.52;;;18.80;45.60;;;;;;4973338;28;20693;-55
2023/09/23 03:39:22;;;;;;;1.30;0.60;;;18.80;45.60;;;;;;4973584;28;20246;-49
2023/09/23 03:41:48;;;;;;;1.20;0.73;;;18.80;45.60;;;;;;4973322;28;20678;-51
2023/09/23 03:44:15;;;;;;;1.00;0.47;;;18.80;45.40;;;;;;4973143;28;20581;-47
2023/09/23 03:46:48;;;;;;;1.10;0.60;;;18.70;45.30;;;;;;4973353;28;20430;-54
2023/09/23 03:49:13;;;;;;;1.02;0.55;;;18.70;45.10;;;;;;4973309;28;20239;-53
2023/09/23 03:51:40;;;;;;;1.03;0.60;;;18.60;45.20;;;;;;4973164;28;20171;-53
2023/09/23 03:54:05;;;;;;;1.10;0.60;;;18.70;45.20;;;;;;4973345;28;20175;-53
2023/09/23 03:56:33;;;;;;;1.10;0.60;;;18.70;45.20;;;;;;4973119;28;20241;-53
2023/09/23 03:59:06;;;;;;;1.05;0.52;;;18.70;45.30;;;;;;4973100;28;20403;-51
2023/09/23 04:01:32;;;;;;;1.00;0.32;;;18.70;45.10;;;;;;4973284;28;20279;-52
2023/09/23 04:03:59;;;;;;;1.08;0.60;;;18.80;45.30;;;;;;4972114;28;20628;-52
2023/09/23 04:06:25;;;;;;;1.25;0.77;;;18.80;45.10;;;;;;4973163;28;20258;-53
2023/09/23 04:08:51;;;;;;;1.10;0.50;;;18.80;44.90;;;;;;4973048;28;20204;-52
2023/09/23 04:11:18;;;;;;;1.13;0.87;;;18.80;45.00;;;;;;4973028;28;20175;-52
2023/09/23 04:13:46;;;;;;;1.25;0.80;;;18.80;45.00;;;;;;4972840;28;20184;-50
2023/09/23 04:16:12;;;;;;;1.38;1.00;;;18.80;44.90;;;;;;4973095;28;20191;-52
2023/09/23 04:18:40;;;;;;;1.00;0.50;;;18.80;44.90;;;;;;4973150;28;20200;-52
2023/09/23 04:21:06;;;;;;;1.30;1.08;;;18.70;45.00;;;;;;4972967;28;20917;-52
2023/09/23 04:23:32;;;;;;;1.77;1.00;;;18.60;44.70;;;;;;4972866;28;20199;-51
2023/09/23 04:25:57;;;;;;;1.30;0.70;;;18.60;45.20;;;;;;4972806;28;20470;-52
2023/09/23 04:28:23;;;;;;;1.53;0.50;;;18.60;45.40;;;;;;4972802;28;20207;-53
2023/09/23 04:30:53;;;;;;;1.00;0.30;;;18.60;45.30;;;;;;4972862;28;20834;-53
2023/09/23 04:33:20;;;;;;;1.00;0.50;;;18.60;45.50;;;;;;4972767;28;20207;-51
2023/09/23 04:35:47;;;;;;;1.58;0.80;;;18.60;45.60;;;;;;4972952;28;20180;-51
2023/09/23 04:38:15;;;;;;;1.30;0.90;;;18.60;45.40;;;;;;4972738;28;20272;-52
2023/09/23 04:40:41;;;;;;;1.00;0.45;;;18.60;45.30;;;;;;4972761;28;20180;-53
2023/09/23 04:43:10;;;;;;;1.10;0.55;;;18.50;45.40;;;;;;4972696;28;20187;-51
2023/09/23 04:45:37;;;;;;;1.30;1.05;;;18.50;45.20;;;;;;4972775;28;20183;-51
2023/09/23 04:48:06;;;;;;;1.00;0.50;;;18.50;45.20;;;;;;4972717;28;20235;-53
2023/09/23 04:50:32;;;;;;;1.42;0.50;;;18.40;45.20;;;;;;4972776;28;20215;-54
2023/09/23 04:52:59;;;;;;;1.30;0.80;;;18.40;45.20;;;;;;4972502;28;20562;-53
2023/09/23 04:55:26;;;;;;;1.00;0.45;;;18.30;45.30;;;;;;4972837;28;20185;-52
2023/09/23 04:57:51;;;;;;;1.17;0.70;;;18.30;45.50;;;;;;4972701;28;20195;-51
2023/09/23 05:00:18;;;;;;;1.00;0.50;;;18.30;45.60;;;;;;4972745;28;20176;-51
2023/09/23 05:02:51;;;;;;;1.00;0.40;;;18.30;45.20;;;;;;4972619;28;20587;-52
2023/09/23 05:05:18;;;;;;;1.65;0.55;;;18.30;44.90;;;;;;4972805;28;20164;-51
2023/09/23 05:07:45;;;;;;;1.58;0.80;;;18.30;44.10;;;;;;4972433;28;20207;-53
2023/09/23 05:10:12;;;;;;;1.10;0.75;;;18.30;44.70;;;;;;4975902;28;20176;-50
2023/09/23 05:12:43;;;;;;;1.67;0.80;;;18.30;44.60;;;;;;4975842;28;20175;-51
2023/09/23 05:15:14;;;;;;;3.95;0.90;;;18.30;44.90;;;;;;4976000;28;20176;-54
2023/09/23 05:17:43;;;;;;;2.55;0.60;;;18.30;44.90;;;;;;4976053;28;20192;-53
2023/09/23 05:20:13;;;;;;;1.20;0.65;;;18.20;45.10;;;;;;4975865;28;20311;-50
2023/09/23 05:22:38;;;;;;;1.00;0.43;;;18.30;45.40;;;;;;4976129;28;20542;-54
2023/09/23 05:25:06;;;;;;;1.00;0.60;;;18.30;45.40;;;;;;4975901;28;20172;-53
2023/09/23 05:27:32;;;;;;;1.10;0.50;;;18.30;45.50;;;;;;4975613;28;20299;-51
2023/09/23 05:29:58;;;;;;;5.10;0.60;;;18.20;45.50;;;;;;4975663;28;20295;-53
2023/09/23 05:32:23;;;;;;;1.20;0.70;;;18.30;45.60;;;;;;4975504;28;20418;-51
2023/09/23 05:34:52;;;;;;;1.10;0.70;;;18.20;45.40;;;;;;4975602;28;20176;-52
2023/09/23 05:37:18;;;;;;;1.00;0.50;;;18.20;45.40;;;;;;4975555;28;20977;-51
2023/09/23 05:39:45;;;;;;;1.05;0.50;;;18.20;45.20;;;;;;4975759;28;20234;-51
2023/09/23 05:42:13;;;;;;;2.08;0.73;;;18.20;45.20;;;;;;4975277;28;20168;-54
2023/09/23 05:44:40;;;;;;;1.02;0.60;;;18.20;45.60;;;;;;4974431;28;20184;-53
2023/09/23 05:47:06;;;;;;;1.00;0.47;;;18.20;45.80;;;;;;4975393;28;20707;-51
2023/09/23 05:49:32;;;;;;;5.43;0.97;;;18.30;45.90;;;;;;4975389;28;20299;-56
2023/09/23 05:51:58;;;;;;;1.57;0.93;;;18.30;45.90;;;;;;4973827;28;20173;-55
2023/09/23 05:54:23;;;;;;;1.20;0.80;;;18.30;46.00;;;;;;4975412;28;20187;-50
2023/09/23 05:56:49;;;;;;;1.13;0.47;;;18.40;45.90;;;;;;4975275;28;20717;-50
2023/09/23 05:59:15;;;;;;;0.93;0.40;;;18.50;45.70;;;;;;4975292;28;20705;-55
2023/09/23 06:01:42;;;;;;;1.27;0.77;;;18.60;45.50;;;;;;4974907;28;20198;-49
2023/09/23 06:04:10;;;;;;;1.20;0.70;;;18.70;44.90;;;;;;4975070;28;20675;-50
2023/09/23 06:06:39;;;;;;;1.02;0.60;;;18.80;44.60;;;;;;4975168;28;20671;-49
2023/09/23 06:09:06;;;;;;;0.90;0.40;;;18.90;44.90;;;;;;4974950;28;20203;-53
2023/09/23 06:11:33;;;;;;;1.00;0.50;;;19.00;44.50;;;;;;4974908;28;20220;-50
2023/09/23 06:13:58;;;;;;;1.30;0.40;;;19.20;44.10;;;;;;4957610;28;20186;-52
2023/09/23 06:16:24;;;;;;;1.43;0.70;;;19.20;43.50;;;;;;4973479;28;20267;-50
2023/09/23 06:18:50;;;;;;;1.00;0.50;;;19.30;43.60;;;;;;4975010;28;20191;-52
2023/09/23 06:21:16;;;;;;;1.30;1.03;;;19.40;43.00;;;;;;4973773;28;20177;-50
2023/09/23 06:23:41;;;;;;;1.03;0.50;;;19.50;42.70;;;;;;4974608;28;20630;-49
2023/09/23 06:26:10;;;;;;;1.30;0.90;;;19.60;42.90;;;;;;4974656;28;20611;-50
2023/09/23 06:28:36;;;;;;;1.05;0.52;;;19.70;43.40;;;;;;4974468;28;20214;-52
2023/09/23 06:31:08;;;;;;;1.00;0.60;;;19.80;42.20;;;;;;4974493;28;20180;-49
2023/09/23 06:33:34;;;;;;;1.00;0.60;;;20.00;41.90;;;;;;4973224;28;20177;-49
2023/09/23 06:36:05;;;;;;;1.40;0.70;;;20.00;40.90;;;;;;4974690;28;20186;-52
2023/09/23 06:38:32;;;;;;;1.10;0.45;;;20.00;40.50;;;;;;4974559;28;20221;-48
2023/09/23 06:40:58;;;;;;;1.10;0.60;;;20.00;40.40;;;;;;4974367;28;20176;-49
2023/09/23 06:43:24;;;;;;;1.60;0.70;;;19.90;40.30;;;;;;4974030;28;20182;-51
2023/09/23 06:45:54;;;;;;;1.23;0.87;;;19.90;40.50;;;;;;4974535;28;20407;-49
2023/09/23 06:48:21;;;;;;;1.10;0.60;;;19.90;39.40;;;;;;4974378;28;20458;-51
2023/09/23 06:50:58;;;;;;;2.13;0.75;;;19.90;39.80;;;;;;4974318;28;20184;-53
2023/09/23 06:53:23;;;;;;;1.00;0.50;;;20.00;40.40;;;;;;4974059;28;20168;-52
2023/09/23 06:55:50;;;;;;;1.00;0.50;;;20.00;39.70;;;;;;4974127;28;20671;-52
2023/09/23 06:58:16;;;;;;;1.08;0.57;;;20.00;39.90;;;;;;4973936;28;20287;-51
2023/09/23 07:00:42;;;;;;;1.20;0.75;;;19.90;39.60;;;;;;4974174;28;20180;-50
2023/09/23 07:03:08;;;;;;;1.30;0.57;;;19.80;39.30;;;;;;4973874;28;20179;-50
2023/09/23 07:05:34;;;;;;;1.00;0.50;;;19.80;39.50;;;;;;4974074;28;20546;-52
2023/09/23 07:08:01;;;;;;;1.10;0.60;;;19.70;40.00;;;;;;4973833;28;20255;-50
2023/09/23 07:10:27;;;;;;;1.67;0.88;;;19.70;40.40;;;;;;4973748;28;20738;-50
2023/09/23 07:12:54;;;;;;;1.40;0.70;;;19.70;39.80;;;;;;4973648;28;20646;-53
2023/09/23 07:15:19;;;;;;;1.10;0.50;;;19.70;40.00;;;;;;4973938;28;20200;-50
2023/09/23 07:17:46;;;;;;;1.10;0.60;;;19.70;40.50;;;;;;4973817;28;20238;-53
2023/09/23 07:20:12;;;;;;;1.05;0.57;;;19.70;40.00;;;;;;4973723;28;20267;-49
2023/09/23 07:22:38;;;;;;;1.00;0.40;;;19.80;39.80;;;;;;4973496;28;20267;-52
2023/09/23 07:25:04;;;;;;;1.00;0.40;;;19.80;40.10;;;;;;4973625;28;20458;-53
2023/09/23 07:27:31;;;;;;;1.23;0.57;;;19.80;40.50;;;;;;4973513;28;20454;-48
2023/09/23 07:29:56;;;;;;;1.10;0.50;;;19.90;40.50;;;;;;4973766;28;20567;-52
2023/09/23 07:32:22;;;;;;;2.13;0.70;;;19.90;39.30;;;;;;4973057;28;20211;-50
2023/09/23 07:34:48;;;;;;;1.00;0.50;;;20.00;39.20;;;;;;4973525;28;20172;-48
2023/09/23 07:37:14;;;;;;;1.20;0.80;;;20.00;39.10;;;;;;4973434;28;20419;-51
2023/09/23 07:39:40;;;;;;;1.00;0.40;;;20.00;38.80;;;;;;4973408;28;20434;-50
2023/09/23 07:42:06;;;;;;;1.40;0.60;;;20.00;38.90;;;;;;4972025;28;20635;-49
2023/09/23 07:44:32;;;;;;;1.40;0.40;;;20.10;37.80;;;;;;4973575;28;20211;-51
2023/09/23 07:46:58;;;;;;;1.20;0.70;;;20.10;38.30;;;;;;4973265;28;20779;-50
2023/09/23 07:49:23;;;;;;;1.00;0.40;;;20.10;38.50;;;;;;4973277;28;20250;-49
2023/09/23 07:51:49;;;;;;;1.00;0.40;;;20.10;38.80;;;;;;4973158;28;20180;-52
2023/09/23 07:54:15;;;;;;;1.67;0.77;;;20.20;38.60;;;;;;4973144;28;20690;-49
2023/09/23 07:56:41;;;;;;;1.00;0.50;;;20.30;38.90;;;;;;4973455;28;20588;-50
2023/09/23 07:59:07;;;;;;;1.10;0.60;;;20.30;38.80;;;;;;4973306;28;20563;-49
2023/09/23 08:01:33;;;;;;;1.10;0.60;;;20.40;38.60;;;;;;4973123;28;20168;-49
2023/09/23 08:03:58;;;;;;;1.20;0.60;;;20.50;38.70;;;;;;4973227;28;20266;-52
2023/09/23 08:06:24;;;;;;;1.17;0.50;;;20.50;38.70;;;;;;4973091;28;20176;-49
2023/09/23 08:08:50;;;;;;;1.10;0.50;;;20.60;38.00;;;;;;4972906;28;20216;-52
2023/09/23 08:11:15;;;;;;;3.17;0.60;;;20.60;37.70;;;;;;4973076;28;20171;-54
2023/09/23 08:13:41;;;;;;;1.37;0.63;;;20.70;37.80;;;;;;4972972;28;20641;-48
2023/09/23 08:16:07;;;;;;;1.00;0.50;;;20.70;38.10;;;;;;4973266;28;20231;-50
2023/09/23 08:18:33;;;;;;;1.00;0.40;;;20.70;37.80;;;;;;4973069;28;20199;-52
2023/09/23 08:20:59;;;;;;;1.50;0.80;;;20.70;37.70;;;;;;4973004;28;20180;-49
2023/09/23 08:23:25;;;;;;;1.10;0.50;;;20.70;37.40;;;;;;4972698;28;20180;-50
2023/09/23 08:25:52;;;;;;;1.42;0.55;;;20.70;37.60;;;;;;4973098;28;20437;-52
2023/09/23 08:28:18;;;;;;;1.10;0.50;;;20.70;37.60;;;;;;4973045;28;20215;-52
2023/09/23 08:30:44;;;;;;;1.07;0.57;;;20.70;37.40;;;;;;4973028;28;20775;-51
2023/09/23 08:33:13;;;;;;;1.37;1.13;;;20.80;37.80;;;;;;4972765;28;20413;-50
2023/09/23 08:35:41;;;;;;;1.20;0.50;;;20.90;38.10;;;;;;4972973;28;20466;-52
2023/09/23 08:38:07;;;;;;;1.10;0.60;;;20.90;38.00;;;;;;4972776;28;20496;-52
2023/09/23 08:40:38;;;;;;;1.10;0.50;;;20.90;37.50;;;;;;4973093;28;20407;-49
2023/09/23 08:43:06;;;;;;;1.05;0.47;;;21.00;37.70;;;;;;4972974;28;20212;-52
2023/09/23 08:45:33;;;;;;;1.10;0.57;;;21.10;36.80;;;;;;4976587;28;20262;-49
2023/09/23 08:48:00;;;;;;;1.00;0.40;;;21.20;37.70;;;;;;4976426;28;20434;-49
2023/09/23 08:50:27;;;;;;;2.13;0.65;;;21.40;37.50;;;;;;4976356;28;20410;-53
2023/09/23 08:52:54;;;;;;;1.00;0.40;;;21.50;36.80;;;;;;4974968;28;20181;-49
2023/09/23 08:55:22;;;;;;;1.00;0.50;;;21.60;35.90;;;;;;4976366;28;20415;-50
2023/09/23 08:57:48;;;;;;;1.20;0.47;;;21.60;34.90;;;;;;4976276;28;20519;-52
2023/09/23 09:00:17;;;;;;;1.03;0.40;;;21.60;33.90;;;;;;4976307;28;20494;-50
2023/09/23 09:02:43;;;;;;;1.00;0.40;;;21.60;34.80;;;;;;4976092;28;20215;-54
2023/09/23 09:05:09;;;;;;;1.07;0.50;;;21.60;35.50;;;;;;4976175;28;20431;-53
2023/09/23 09:07:35;;;;;;;1.27;0.50;;;21.70;35.00;;;;;;4976225;28;20445;-52
2023/09/23 09:10:02;;;;;;;1.10;0.50;;;21.80;35.70;;;;;;4976023;28;20529;-53
2023/09/23 09:12:30;;;;;;;1.20;0.70;;;21.90;34.10;;;;;;4975918;28;20426;-52
2023/09/23 09:14:56;;;;;;;1.03;0.50;;;22.00;34.80;;;;;;4976001;28;20412;-54
2023/09/23 09:17:21;;;;;;;1.00;0.40;;;22.00;33.20;;;;;;4975989;28;20434;-56
2023/09/23 09:19:49;;;;;;;1.00;0.33;;;22.00;34.60;;;;;;4975976;28;20187;-51
2023/09/23 09:22:16;;;;;;;1.10;0.43;;;21.90;33.50;;;;;;4975594;28;20263;-53
2023/09/23 09:24:43;;;;;;;1.03;0.50;;;21.80;33.90;;;;;;4976014;28;20439;-52
2023/09/23 09:27:15;;;;;;;1.00;0.43;;;21.70;33.60;;;;;;4975611;28;20455;-54
2023/09/23 09:29:42;;;;;;;1.00;0.40;;;21.60;34.40;;;;;;4975729;28;20466;-53
2023/09/23 09:32:10;;;;;;;1.00;0.50;;;21.60;34.30;;;;;;4975378;28;20407;-52
2023/09/23 09:34:46;;;;;;;2.03;0.70;;;21.60;34.30;;;;;;4975907;28;20518;-54
2023/09/23 09:37:13;;;;;;;1.00;0.40;;;21.50;34.40;;;;;;4975649;28;20441;-52
2023/09/23 09:39:51;;;;;;;1.00;0.40;;;21.50;35.40;;;;;;4975707;28;20415;-50
2023/09/23 09:42:33;;;;;;;1.00;0.53;;;21.40;34.20;;;;;;4975332;28;20411;-52
2023/09/23 09:45:00;;;;;;;1.10;0.50;;;21.30;35.40;;;;;;4975614;28;20411;-52
2023/09/23 09:47:29;;;;;;;1.00;0.40;;;21.30;35.70;;;;;;4975324;28;20431;-51
2023/09/23 09:49:55;;;;;;;1.10;0.50;;;21.30;35.40;;;;;;4975362;28;21003;-50
2023/09/23 09:52:26;;;;;;;1.00;0.40;;;21.30;34.80;;;;;;4975068;28;20428;-51
2023/09/23 09:54:55;;;;;;;1.33;0.50;;;21.30;35.60;;;;;;4975186;28;20423;-50
2023/09/23 09:57:22;;;;;;;1.30;0.57;;;21.30;35.00;;;;;;4975101;28;20424;-50
2023/09/23 09:59:50;;;;;;;1.23;0.83;;;21.40;34.90;;;;;;4975222;28;20474;-53
2023/09/23 10:02:16;;;;;;;1.40;0.50;;;21.50;35.30;;;;;;4974908;28;20956;-49
2023/09/23 10:04:49;;;;;;;1.73;0.70;;;21.70;35.70;;;;;;4975208;28;20793;-49
2023/09/23 10:07:14;;;;;;;1.00;0.50;;;21.90;35.60;;;;;;4974961;28;20475;-53
2023/09/23 10:09:53;;;;;;;1.07;0.53;;;22.20;35.00;;;;;;4974807;28;20467;-49
2023/09/23 10:12:26;;;;;;;1.77;0.70;;;22.40;34.70;;;;;;4975071;28;20258;-49
2023/09/23 10:14:56;;;;;;;1.20;0.50;;;22.50;34.30;;;;;;4974960;28;20770;-52
2023/09/23 10:17:32;;;;;;;1.10;0.60;;;22.50;33.30;;;;;;4974850;28;20432;-49
2023/09/23 10:20:00;;;;;;;1.10;0.53;;;22.30;32.50;;;;;;4974748;28;20415;-50
2023/09/23 10:22:29;;;;;;;1.50;0.80;;;22.20;33.30;;;;;;4974592;28;20913;-50
2023/09/23 10:25:04;;;;;;;1.43;0.87;;;22.20;33.40;;;;;;4974902;28;20498;-51
2023/09/23 10:27:31;;;;;;;1.20;0.70;;;22.20;33.90;;;;;;4974573;28;20451;-49
2023/09/23 10:29:58;;;;;;;1.47;0.93;;;22.30;34.50;;;;;;4974706;28;20495;-49
2023/09/23 10:32:24;;;;;;;1.97;0.60;;;22.30;34.00;;;;;;4974401;28;20403;-52
2023/09/23 10:34:53;;;;;;;1.13;0.63;;;22.20;33.10;;;;;;4974402;28;20407;-49
2023/09/23 10:37:30;;;;;;;1.20;0.60;;;22.10;33.40;;;;;;4974454;28;20419;-49
2023/09/23 10:40:12;;;;;;;1.93;0.97;;;22.10;33.80;;;;;;4974620;28;20466;-52
2023/09/23 10:42:41;;;;;;;1.40;1.07;;;22.00;34.40;;;;;;4974341;28;20407;-49
2023/09/23 10:45:07;;;;;;;1.30;0.83;;;22.00;34.40;;;;;;4974289;28;20510;-52
2023/09/23 10:47:35;;;;;;;1.57;1.00;;;22.00;34.50;;;;;;4974257;28;20435;-51
2023/09/23 10:50:05;;;;;;;1.63;0.90;;;22.00;34.00;;;;;;4974145;28;20451;-49
2023/09/23 10:52:31;;;;;;;1.30;0.70;;;22.10;34.40;;;;;;4974231;28;20838;-49
2023/09/23 10:54:57;;;;;;;1.10;0.50;;;22.10;34.70;;;;;;4974202;28;20482;-54
2023/09/23 10:57:24;;;;;;;1.73;0.70;;;22.30;35.40;;;;;;4974128;28;20830;-54
2023/09/23 10:59:51;;;;;;;1.40;0.73;;;22.50;34.90;;;;;;4974080;28;20423;-53
2023/09/23 11:02:19;;;;;;;1.60;0.90;;;22.60;34.20;;;;;;4974057;28;20404;-55
2023/09/23 11:04:49;;;;;;;1.10;0.60;;;22.80;33.80;;;;;;4974059;28;20411;-53
2023/09/23 11:07:16;;;;;;;1.40;0.93;;;22.90;32.90;;;;;;4973471;28;20429;-52
2023/09/23 11:09:45;;;;;;;1.10;0.53;;;23.20;33.90;;;;;;4973917;28;20466;-56
2023/09/23 11:12:15;;;;;;;1.00;0.40;;;23.40;33.50;;;;;;4973649;28;20435;-52
2023/09/23 11:14:43;;;;;;;1.00;0.40;;;23.60;32.50;;;;;;4973836;28;20415;-53
2023/09/23 11:17:25;;;;;;;1.93;1.07;;;23.60;29.80;;;;;;4973861;28;20459;-53
2023/09/23 11:19:58;;;;;;;1.07;0.50;;;23.30;31.10;;;;;;4973746;28;20543;-51
2023/09/23 11:22:29;;;;;;;1.60;0.50;;;23.10;31.30;;;;;;4973521;28;20426;-52
2023/09/23 11:24:56;;;;;;;1.03;0.53;;;22.90;32.40;;;;;;4973707;28;20419;-51
2023/09/23 11:27:23;;;;;;;1.67;0.73;;;22.80;32.30;;;;;;4973432;28;20459;-49
2023/09/23 11:29:49;;;;;;;1.00;0.30;;;22.70;31.80;;;;;;4973510;28;20458;-52
2023/09/23 11:32:23;;;;;;;5.20;0.70;;;22.60;32.00;;;;;;4973352;28;20400;-50
2023/09/23 11:34:49;;;;;;;1.00;0.43;;;22.50;32.70;;;;;;4973480;28;20434;-51
2023/09/23 11:37:14;;;;;;;2.03;1.07;;;22.50;33.10;;;;;;4973344;28;20655;-50
2023/09/23 11:39:40;;;;;;;1.53;1.03;;;22.40;31.50;;;;;;4973788;28;21070;-50
2023/09/23 11:42:06;;;;;;;1.07;0.50;;;22.30;33.10;;;;;;4973290;28;20171;-50
2023/09/23 11:44:34;;;;;;;3.43;0.90;;;22.30;33.30;;;;;;4973500;28;20188;-49
2023/09/23 11:47:00;;;;;;;1.60;0.70;;;22.40;34.10;;;;;;4973249;28;20232;-50
2023/09/23 11:49:26;;;;;;;1.03;0.50;;;22.30;33.00;;;;;;4973230;28;20501;-52
2023/09/23 11:51:52;;;;;;;2.70;0.73;;;22.40;33.40;;;;;;4973093;28;20901;-50
2023/09/23 11:54:18;;;;;;;1.03;0.40;;;22.40;33.20;;;;;;4973450;28;20183;-50
2023/09/23 11:56:43;;;;;;;2.27;0.50;;;22.40;33.20;;;;;;4973165;28;20809;-53
2023/09/23 11:59:09;;;;;;;1.20;0.60;;;22.50;33.80;;;;;;4973357;28;20423;-49
2023/09/23 12:01:35;;;;;;;0.97;0.40;;;22.50;33.40;;;;;;4973153;28;20251;-51
2023/09/23 12:04:01;;;;;;;1.10;0.50;;;22.60;33.50;;;;;;4973082;28;20184;-53
2023/09/23 12:06:34;;;;;;;3.20;1.23;;;22.60;33.50;;;;;;4972935;28;20764;-49
2023/09/23 12:09:01;;;;;;;1.10;0.40;;;22.70;33.60;;;;;;4973111;28;20211;-50
2023/09/23 12:11:27;;;;;;;1.00;0.30;;;22.70;33.30;;;;;;4973129;28;20407;-52
2023/09/23 12:13:52;;;;;;;1.07;0.50;;;22.70;32.60;;;;;;4972927;28;20429;-50
2023/09/23 12:16:18;;;;;;;1.20;0.70;;;22.60;32.80;;;;;;4973015;28;20172;-50
2023/09/23 12:18:48;;;;;;;1.30;0.80;;;22.60;32.50;;;;;;4975958;28;20764;-52
2023/09/23 12:21:15;;;;;;;1.40;0.60;;;22.80;34.00;;;;;;4977204;28;20505;-50
2023/09/23 12:23:41;;;;;;;1.27;0.70;;;23.00;32.60;;;;;;4976935;28;20442;-49
2023/09/23 12:26:09;;;;;;;1.10;0.60;;;23.40;33.80;;;;;;4976919;28;20489;-52
2023/09/23 12:28:38;;;;;;;1.10;0.50;;;23.70;32.80;;;;;;4976699;28;20465;-50
2023/09/23 12:31:04;;;;;;;1.00;0.43;;;24.00;31.00;;;;;;4976787;28;20400;-51
2023/09/23 12:33:30;;;;;;;1.07;0.53;;;24.30;31.30;;;;;;4976393;28;20407;-51
2023/09/23 12:35:57;;;;;;;1.10;0.60;;;24.60;30.90;;;;;;4976703;28;20446;-49
2023/09/23 12:38:23;;;;;;;1.10;0.60;;;24.80;29.40;;;;;;4976855;28;20203;-52
2023/09/23 12:40:49;;;;;;;1.10;0.70;;;25.00;27.40;;;;;;4976632;28;20403;-53
2023/09/23 12:43:14;;;;;;;1.10;0.53;;;25.00;28.00;;;;;;4976433;28;20198;-51
2023/09/23 12:45:41;;;;;;;1.20;0.70;;;25.10;27.80;;;;;;4976604;28;20235;-51
2023/09/23 12:48:10;;;;;;;5.37;0.93;;;25.30;29.70;;;;;;4976303;28;20577;-53
2023/09/23 12:50:36;;;;;;;1.57;1.10;;;25.30;28.40;;;;;;4976707;28;20494;-49